Nearby METAR (Airport) Reports

 

KPRN - Greenville, Alabama, USA
Distance from station: WNW 17mi, 28km
Updated: Thu, 22-Aug-2019 5:56pm CDT
Few Clouds
Few Clouds
 Wind from S
Wind: S 7 mph , 11 km/h
Temperature: 88°F , 31°C
Heat Index: 93°F , 34°C
Dew Point: 70°F , 21°C
Humidity: 55%
Barometer: 29.98 inHg , 1015.2 hPa
Clouds: Few Clouds
Visibility: 10 miles , 16 km
Cloud details: Few Clouds 2900 ft
2019/08/22 22:56 KPRN 222256Z AUTO 18006KT 10SM FEW029 31/21 A2998 RMK AO2 SLP146 T03110211
KTOI - Troy, Alabama, USA
Distance from station: ENE 21mi, 34km
Updated: Thu, 22-Aug-2019 6:53pm CDT
Clear
Clear
 Wind from calm
Wind: Calm
Temperature: 82°F , 28°C
Heat Index: 91°F , 33°C
Dew Point: 79°F , 26°C
Humidity: 89%
Barometer: 29.99 inHg , 1015.6 hPa
Clouds: Clear
Visibility: 10 miles , 16 km
2019/08/22 23:53 KTOI 222353Z AUTO 00000KT 10SM CLR 28/26 A2999 RMK AO2 SLP149 T02830256 10333 20278 56007
K79J - Andalusia/Opp Ar, Alabama, USA
Distance from station: S 29mi, 47km
Updated: Thu, 22-Aug-2019 6:56pm CDT
Clear
Clear
 Wind from SW
Wind: SW 5 mph , 7 km/h
Temperature: 86°F , 30°C
Heat Index: 95°F , 35°C
Dew Point: 75°F , 24°C
Humidity: 70%
Barometer: 29.99 inHg , 1015.6 hPa
Clouds: Clear
Visibility: 10 miles , 16 km
2019/08/22 23:56 K79J 222356Z AUTO 22004KT 10SM CLR 30/24 A2999 RMK AO2 SLP149 60000 T03000239 10328 20272 56004
 
KMGM - Montgomery, Alabama, USA
Distance from station: N 39mi, 63km
Updated: Thu, 22-Aug-2019 6:53pm CDT
Clear
Clear
 Wind from SSW
Wind: SSW 5 mph , 7 km/h
Temperature: 88°F , 31°C
Heat Index: 95°F , 35°C
Dew Point: 72°F , 22°C
Humidity: 59%
Barometer: 29.97 inHg , 1014.9 hPa
Clouds: Clear
Visibility: 10 miles , 16 km
2019/08/22 23:53 KMGM 222353Z 20004KT 10SM CLR 31/22 A2997 RMK AO2 SLP145 60037 T03060222 10339 20256 55006
KMXF - Maxwell Afb/Mgm, Alabama, USA
Distance from station: N 44mi, 70km
Updated: Thu, 22-Aug-2019 6:56pm CDT
Clear
Clear
 Wind from SSW
Wind: SSW 3 mph , 6 km/h
Temperature: 88°F , 31°C
Heat Index: 96°F , 36°C
Dew Point: 73°F , 23°C
Humidity: 62%
Barometer: 29.96 inHg , 1014.6 hPa
Clouds: Clear
Visibility: 10 miles , 16 km
2019/08/22 23:56 KMXF 222356Z AUTO 20003KT 10SM CLR 31/23 A2996 RMK AO2 SLP146 60000 T03080229 10336 20277 56006
KLOR - Lowe Ahp/Ft. Ruc, Alabama, USA
Distance from station: SE 44mi, 71km
Updated: Thu, 22-Aug-2019 6:58pm CDT
Clear
Clear
 Wind from SW
Wind: SW 6 mph , 9 km/h
Temperature: 86°F , 30°C
Heat Index: 95°F , 35°C
Dew Point: 75°F , 24°C
Humidity: 70%
Barometer: 29.98 inHg , 1015.2 hPa
Clouds: Clear
Visibility: 10 miles , 16 km
2019/08/22 23:58 KLOR 222358Z AUTO 23005KT 10SM CLR 30/24 A2998 RMK AO2 LTG DSNT SE-S SLP133 T03000240 10338 20299 55001
 
KGZH - Evergreen, Alabama, USA
Distance from station: WSW 46mi, 75km
Updated: Thu, 22-Aug-2019 6:53pm CDT
Clear
Clear
 Wind from SSW
Wind: SSW 5 mph , 7 km/h
Temperature: 82°F , 28°C
Heat Index: 87°F , 31°C
Dew Point: 73°F , 23°C
Humidity: 74%
Barometer: 29.99 inHg , 1015.6 hPa
Clouds: Clear
Visibility: 10 miles , 16 km
2019/08/22 23:53 KGZH 222353Z AUTO 20004KT 10SM CLR 28/23 A2999 RMK AO2 SLP150 6//// T02830228 10328 20261 54000 TSNO $
K0J4 - Florala Muni, Alabama, USA
Distance from station: S 47mi, 76km
Updated: Thu, 22-Aug-2019 6:58pm CDT
Clear
Clear
 Wind from SW
Wind: SW 8 mph , 13 km/h
Temperature: 82°F , 28°C
Heat Index: 87°F , 31°C
Dew Point: 73°F , 23°C
Humidity: 74%
Barometer: 30.01 inHg , 1016.3 hPa
Clouds: Clear
Visibility: 10 miles , 16 km
2019/08/22 23:58 K0J4 222358Z AUTO 22007KT 10SM CLR 28/23 A3001 RMK AO2 SLP157 T02830233 10322 20283 55001
KOZR - Ozark/Cairns Aaf, Alabama, USA
Distance from station: SE 49mi, 78km
Updated: Thu, 22-Aug-2019 6:56pm CDT
Clear
Clear
 Wind from SW
Wind: SW 7 mph , 11 km/h
Temperature: 86°F , 30°C
Heat Index: 95°F , 35°C
Dew Point: 75°F , 24°C
Humidity: 70%
Barometer: 29.98 inHg , 1015.2 hPa
Clouds: Clear
Visibility: 10 miles , 16 km
2019/08/22 23:56 KOZR 222356Z AUTO 22006KT 10SM CLR 30/24 A2998 RMK AO2 SLP152 T02980239 10333 20298 55001
 
KHEY - Ft Rucker/Hanche, Alabama, USA
Distance from station: ESE 49mi, 79km
Updated: Thu, 22-Aug-2019 6:58pm CDT
Clear
Clear
 Wind from calm
Wind: Calm
Temperature: 86°F , 30°C
Heat Index: 95°F , 35°C
Dew Point: 75°F , 24°C
Humidity: 70%
Barometer: 29.97 inHg , 1014.9 hPa
Clouds: Clear
Visibility: 10 miles , 16 km
2019/08/22 23:58 KHEY 222358Z AUTO 00000KT 10SM CLR 30/24 A2997 RMK AO2 LTG DSNT SE SLP148 T02990241 10333 20299 55001
KDHN - Dothan, Alabama, USA
Distance from station: ESE 61mi, 97km
Updated: Thu, 22-Aug-2019 6:53pm CDT
Clear
Clear
 Wind from SSW
Wind: SSW 5 mph , 7 km/h
Temperature: 88°F , 31°C
Heat Index: 95°F , 35°C
Dew Point: 72°F , 22°C
Humidity: 59%
Barometer: 30.01 inHg , 1016.3 hPa
Clouds: Clear
Visibility: 10 miles , 16 km
2019/08/22 23:53 KDHN 222353Z 20004KT 10SM CLR 31/22 A3001 RMK AO2 SLP157 T03060222 10344 20306 55001
KCEW - Crestview, Florida, USA
Distance from station: S 66mi, 107km
Updated: Thu, 22-Aug-2019 6:53pm CDT
Clear
Clear
 Wind from SSW
Wind: SSW 6 mph , 9 km/h
Temperature: 82°F , 28°C
Heat Index: 89°F , 32°C
Dew Point: 75°F , 24°C
Humidity: 79%
Barometer: 30.01 inHg , 1016.3 hPa
Clouds: Clear
Visibility: 10 miles , 16 km
2019/08/22 23:53 KCEW 222353Z AUTO 21005KT 10SM CLR 28/24 A3001 RMK AO2 SLP158 T02830239 10317 20283 55001
 
KEUF - Eufaula, Alabama, USA
Distance from station: ENE 73mi, 118km
Updated: Mon, 04-Mar-2019 12:58pm CST
NOT Current

 
Barometer: 30.10 inHg , 1019.3 hPa
2019/03/04 18:58 KEUF 041858Z AUTO A3010 RMK AO2 RAEMM TSB02B32 SLPNO PWINO FZRANO TSNO $
KJKA - Gulf Shores, Alabama, USA
Distance from station: SSW 132mi, 212km
Updated: Thu, 22-Aug-2019 6:55pm CDT
Clear
Clear
 Wind from SE
Wind: SE 3 mph , 6 km/h
Temperature: 82°F , 28°C
Heat Index: 89°F , 32°C
Dew Point: 75°F , 24°C
Humidity: 79%
Barometer: 29.98 inHg , 1015.2 hPa
Clouds: Clear
Visibility: 10 miles , 16 km
2019/08/22 23:55 KJKA 222355Z AUTO 14003KT 10SM CLR 28/24 A2998 RMK AO2 T02810241 10306 20265
KLSF - Ft Benning/Colum, Georgia, USA
Distance from station: SNE 89mi, 143km
Updated: Thu, 22-Aug-2019 6:56pm CDT
Clear
Clear
 Wind from SE
Wind: SE 7 mph , 11 km/h
Temperature: 88°F , 31°C
Heat Index: 98°F , 37°C
Dew Point: 75°F , 24°C
Humidity: 66%
Barometer: 29.95 inHg , 1014.2 hPa
Clouds: Clear
Visibility: 10 miles , 16 km
2019/08/22 23:56 KLSF 222356Z AUTO 14006KT 10SM CLR 31/24 A2995 RMK AO2 SLP145 T03130236 10348 20313 55005
 
KMOB - Mobile/Bates, Alabama, USA
Distance from station: SW 125mi, 202km
Updated: Thu, 22-Aug-2019 6:56pm CDT
Partly cloudy
Partly cloudy
 Wind from SSE
Wind: SSE 8 mph , 13 km/h
Temperature: 84°F , 29°C
Heat Index: 92°F , 33°C
Dew Point: 75°F , 24°C
Humidity: 74%
Barometer: 29.98 inHg , 1015.2 hPa
Clouds: Partly cloudy
Visibility: 10 miles , 16 km
Cloud details: Few Clouds 3000 ft
Partly cloudy 25000 ft
2019/08/22 23:56 KMOB 222356Z 16007KT 10SM FEW030 SCT250 29/24 A2998 RMK AO2 SLP148 T02890239 10328 20289 55001
KNMM - Meridian Nas, Mississippi, USA
Distance from station: WNW 151mi, 243km
Updated: Thu, 22-Aug-2019 6:56pm CDT
Mostly cloudy
Mostly cloudy
 Wind from WSW
Wind: WSW 3 mph , 6 km/h
Temperature: 81°F , 27°C
Heat Index: 86°F , 30°C
Dew Point: 73°F , 23°C
Humidity: 79%
Barometer: 29.98 inHg , 1015.2 hPa
Clouds: Mostly cloudy
Visibility: 10 miles , 16 km
Cloud details: Few Clouds 12000 ft
Partly cloudy 21000 ft
Mostly cloudy 28000 ft
2019/08/22 23:56 KNMM 222356Z 24003KT 10SM FEW120 SCT210 BKN280 27/23 A2998 RMK AO2 SLP158 60006 T02670233 10333 20261 55005
KQHY - Hurlbert (Ft Walton Bch), Florida, USA
Distance from station: S 94mi, 151km
Updated: Thu, 22-Aug-2019 1:56pm CDT
NOT Current
Clear
Clear
 Wind from SE
Wind: SE 3 mph , 6 km/h
Temperature: 84°F , 29°C
Heat Index: 94°F , 34°C
Dew Point: 77°F , 25°C
Humidity: 79%
Barometer: 30.03 inHg , 1016.9 hPa
Clouds: Clear
Visibility: 10 miles , 16 km
2019/08/22 18:56 KQHY 221856Z AUTO 13003KT 10SM CLR 29/25 A3003 RMK AO2 LTG DSNT NW-N SLP175 T02910251 $
 
KTCL - Tuscaloosa, Alabama, USA
Distance from station: NNW 129mi, 207km
Updated: Thu, 22-Aug-2019 6:53pm CDT
Clear
Clear
 Wind from calm
Wind: Calm
Temperature: 79°F , 26°C
Dew Point: 75°F , 24°C
Humidity: 89%
Barometer: 29.95 inHg , 1014.2 hPa
Clouds: Clear
Visibility: 10 miles , 16 km
2019/08/22 23:53 KTCL 222353Z 00000KT 10SM CLR 26/24 A2995 RMK AO2 RAB2259E15 TSE2258 SLP140 P0001 60031 T02610244 10328 20244 58005
KECP - Panama City, Florida, USA
Distance from station: SSE 122mi, 196km
Updated: Thu, 22-Aug-2019 6:53pm CDT
Few Clouds
Few Clouds
 Wind from SSE
Wind: SSE 7 mph , 11 km/h
Temperature: 82°F , 28°C
Heat Index: 90°F , 32°C
Dew Point: 77°F , 25°C
Humidity: 84%
Barometer: 29.98 inHg , 1015.2 hPa
Clouds: Few Clouds
Visibility: 10 miles , 16 km
Cloud details: Few Clouds 3000 ft
2019/08/22 23:53 KECP 222353Z 15006KT 10SM FEW030 28/25 A2998 RMK AO2 SLP163 60002 T02830250 10311 20272 55001
KCBM - Columbus Afb, Mississippi, USA
Distance from station: NW 175mi, 282km
Updated: Thu, 22-Aug-2019 6:56pm CDT
Clear
Clear
 Wind from calm
Wind: Calm
Temperature: 79°F , 26°C
Dew Point: 77°F , 25°C
Humidity: 94%
Barometer: 29.94 inHg , 1013.9 hPa
Clouds: Clear
Visibility: 10 miles , 16 km
2019/08/22 23:56 KCBM 222356Z AUTO 00000KT 10SM CLR 26/25 A2994 RMK AO2 RAB07E31 SLP140 P0006 60006 T02600246 10328 20258 55003
 
KBHM - Birmingham, Alabama, USA
Distance from station: N 132mi, 212km
Updated: Thu, 22-Aug-2019 6:53pm CDT
Few Clouds
Few Clouds
 Wind from WNW
Wind: WNW 9 mph , 15 km/h
Temperature: 88°F , 31°C
Heat Index: 92°F , 33°C
Dew Point: 68°F , 20°C
Humidity: 52%
Barometer: 29.99 inHg , 1015.6 hPa
Clouds: Few Clouds
Visibility: 10 miles , 16 km
Cloud details: Few Clouds 6000 ft
Few Clouds 25000 ft
2019/08/22 23:53 KBHM 222353Z 29008KT 10SM FEW060 FEW250 31/20 A2999 RMK AO2 SLP145 T03110200 10344 20306 58003
KAAF - Apalachicola, Florida, USA
Distance from station: SSE 156mi, 250km
Updated: Thu, 22-Aug-2019 6:53pm CDT
Clear
Clear
 Wind from S
Wind: S 6 mph , 9 km/h
Temperature: 84°F , 29°C
Heat Index: 90°F , 32°C
Dew Point: 73°F , 23°C
Humidity: 70%
Barometer: 30.00 inHg , 1015.9 hPa
Clouds: Clear
Visibility: 10 miles , 16 km
2019/08/22 23:53 KAAF 222353Z AUTO 18005KT 10SM CLR 29/23 A3000 RMK AO2 SLP157 T02890233 10311 20289 53003
KATL - Atlanta, Georgia, USA
Distance from station: NE 177mi, 287km
Updated: Thu, 22-Aug-2019 6:52pm CDT
Few Clouds
Few Clouds
 Wind from SSW
Wind: SSW 9 mph , 15 km/h
Temperature: 88°F , 31°C
Heat Index: 90°F , 32°C
Dew Point: 64°F , 18°C
Humidity: 46%
Barometer: 29.99 inHg , 1015.6 hPa
Clouds: Few Clouds
Visibility: 10 miles , 16 km
Cloud details: Few Clouds 6000 ft
Few Clouds 20000 ft
2019/08/22 23:52 KATL 222352Z 21008KT 10SM FEW060 FEW200 31/18 A2999 RMK AO2 SLP145 CB DSNT NW-N T03110183 10344 20311 56003
 
KGPT - Gulfport, Mississippi, USA
Distance from station: SW 192mi, 309km
Updated: Thu, 22-Aug-2019 6:53pm CDT
Clear
Clear
 Wind from SSE
Wind: SSE 10 mph , 17 km/h
Temperature: 84°F , 29°C
Heat Index: 90°F , 32°C
Dew Point: 73°F , 23°C
Humidity: 70%
Barometer: 29.95 inHg , 1014.2 hPa
Clouds: Clear
Visibility: 10 miles , 16 km
2019/08/22 23:53 KGPT 222353Z 15009KT 10SM CLR 29/23 A2995 RMK AO2 SLP143 T02940233 10322 20294 51001
KNEW - New Orleans/Lake, Louisiana, USA
Distance from station: SW 255mi, 410km
Updated: Thu, 22-Aug-2019 6:53pm CDT
Clear
Clear
 Wind from SSE
Wind: SSE 12 mph , 19 km/h
Temperature: 84°F , 29°C
Heat Index: 92°F , 33°C
Dew Point: 75°F , 24°C
Humidity: 74%
Barometer: 29.98 inHg , 1015.2 hPa
Clouds: Clear
Visibility: 10 miles , 16 km
2019/08/22 23:53 KNEW 222353Z 16010KT 10SM CLR 29/24 A2998 RMK AO2 LTG DSNT S AND W SLP144 60000 T02940239 10333 20272 53007
KP92 - Salt Point, Louisiana, USA
Distance from station: SW 347mi, 559km
Updated: Thu, 22-Aug-2019 6:53pm CDT

 
Temperature: 84°F , 29°C
Heat Index: 94°F , 34°C
Dew Point: 77°F , 25°C
Humidity: 79%
Barometer: 29.95 inHg , 1014.2 hPa
2019/08/22 23:53 KP92 222353Z AUTO 29/25 A2995 RMK AO1 SLP141 T02890250 10311 20267 53009